METAR Data
IDs: Format: Raw Decoded Include TAF

Data at: 0042 UTC 25 Apr 2019

METAR for:KTVK (Centerville Muni, IA, US)
Text:KTVK 250035Z AUTO 12006KT 10SM SCT028 15/13 A2984 RMK AO2
Temperature: 15.0°C ( 59°F)
Dewpoint: 13.0°C ( 55°F) [RH = 88%]
Pressure (altimeter):29.84 inches Hg (1010.6 mb)
Winds:from the ESE (120 degrees) at 7 MPH (6 knots; 3.1 m/s)
Visibility:10 or more sm (16+ km)
Ceiling:at least 12,000 feet AGL
Clouds: scattered clouds at 2800 feet AGL
QC Flag:automated observation with no human augmentation